Kenner, Louisiana
Current Conditions -  °F | °C
As of 7:53 AM on Saturday 20 Dec 2014 (Local Time) from KMSY Reporting Station
Haze Haze  
Wind Chill: 51°   Ceiling: 800
Heat Index: 51°   Visibility: 4mi
Dew Point: 47°   Wind: 13mph
Humidity: 86%   Direction: 30°NNE
Pressure: 30.13"   Gusts: NA
Location:  29.99°N, 90.24°W
Report Text: KMSY 201353Z 03011KT 4SM BR OVC008 11/08 A3013 RMK AO2 SLP204 T01060083
Loading
Personal Weather Stations






























Interactive Weather Map New forecast layout! Learn more

10-Day Weather Forecast

Advertisements
Track Severe Weather on mobile